sensor_id;sensor_type;location;lat;lon;timestamp;P1;durP1;ratioP1;P2;durP2;ratioP2
41343;SDS011;27089;50.022;7.604;2023-06-19T00:01:07;7.13;;;6.43;;
41343;SDS011;27089;50.022;7.604;2023-06-19T00:03:34;7.90;;;7.13;;
41343;SDS011;27089;50.022;7.604;2023-06-19T00:06:01;7.40;;;6.63;;
41343;SDS011;27089;50.022;7.604;2023-06-19T00:08:28;7.45;;;6.75;;
41343;SDS011;27089;50.022;7.604;2023-06-19T00:10:57;7.95;;;6.65;;
41343;SDS011;27089;50.022;7.604;2023-06-19T00:13:24;8.02;;;6.80;;
41343;SDS011;27089;50.022;7.604;2023-06-19T00:15:51;7.97;;;6.95;;
41343;SDS011;27089;50.022;7.604;2023-06-19T00:18:18;7.78;;;6.97;;
41343;SDS011;27089;50.022;7.604;2023-06-19T00:20:45;7.80;;;7.00;;
41343;SDS011;27089;50.022;7.604;2023-06-19T00:23:12;7.63;;;6.90;;
41343;SDS011;27089;50.022;7.604;2023-06-19T00:25:41;7.97;;;7.18;;
41343;SDS011;27089;50.022;7.604;2023-06-19T00:28:11;8.60;;;7.00;;
41343;SDS011;27089;50.022;7.604;2023-06-19T00:30:39;7.53;;;6.78;;
41343;SDS011;27089;50.022;7.604;2023-06-19T00:33:06;11.13;;;7.28;;
41343;SDS011;27089;50.022;7.604;2023-06-19T00:35:33;8.60;;;7.20;;
41343;SDS011;27089;50.022;7.604;2023-06-19T00:38:01;9.57;;;7.25;;
41343;SDS011;27089;50.022;7.604;2023-06-19T00:40:28;7.78;;;6.97;;
41343;SDS011;27089;50.022;7.604;2023-06-19T00:42:57;7.03;;;6.40;;
41343;SDS011;27089;50.022;7.604;2023-06-19T00:45:25;8.40;;;7.13;;
41343;SDS011;27089;50.022;7.604;2023-06-19T00:47:53;7.55;;;6.85;;
41343;SDS011;27089;50.022;7.604;2023-06-19T00:50:21;9.10;;;8.02;;
41343;SDS011;27089;50.022;7.604;2023-06-19T00:52:49;7.95;;;7.20;;
41343;SDS011;27089;50.022;7.604;2023-06-19T00:55:16;7.93;;;6.97;;
41343;SDS011;27089;50.022;7.604;2023-06-19T00:57:44;8.10;;;7.30;;
41343;SDS011;27089;50.022;7.604;2023-06-19T01:00:12;8.23;;;7.38;;
41343;SDS011;27089;50.022;7.604;2023-06-19T01:02:41;7.32;;;6.63;;
41343;SDS011;27089;50.022;7.604;2023-06-19T01:05:08;8.05;;;6.80;;
41343;SDS011;27089;50.022;7.604;2023-06-19T01:07:37;9.05;;;6.88;;
41343;SDS011;27089;50.022;7.604;2023-06-19T01:10:12;8.85;;;7.68;;
41343;SDS011;27089;50.022;7.604;2023-06-19T01:12:42;9.07;;;7.03;;
41343;SDS011;27089;50.022;7.604;2023-06-19T01:15:17;7.30;;;6.65;;
41343;SDS011;27089;50.022;7.604;2023-06-19T01:17:49;8.10;;;7.32;;
41343;SDS011;27089;50.022;7.604;2023-06-19T01:20:17;8.10;;;7.40;;
41343;SDS011;27089;50.022;7.604;2023-06-19T01:22:45;8.05;;;7.25;;
41343;SDS011;27089;50.022;7.604;2023-06-19T01:25:13;8.25;;;7.45;;
41343;SDS011;27089;50.022;7.604;2023-06-19T01:27:40;8.65;;;7.82;;
41343;SDS011;27089;50.022;7.604;2023-06-19T01:30:08;7.63;;;6.88;;
41343;SDS011;27089;50.022;7.604;2023-06-19T01:32:40;7.93;;;7.22;;
41343;SDS011;27089;50.022;7.604;2023-06-19T01:35:13;9.10;;;7.60;;
41343;SDS011;27089;50.022;7.604;2023-06-19T01:37:43;7.90;;;6.83;;
41343;SDS011;27089;50.022;7.604;2023-06-19T01:40:13;8.50;;;7.30;;
41343;SDS011;27089;50.022;7.604;2023-06-19T01:42:42;8.40;;;7.10;;
41343;SDS011;27089;50.022;7.604;2023-06-19T01:45:09;7.47;;;6.78;;
41343;SDS011;27089;50.022;7.604;2023-06-19T01:47:36;8.50;;;7.35;;
41343;SDS011;27089;50.022;7.604;2023-06-19T01:50:04;8.70;;;7.90;;
41343;SDS011;27089;50.022;7.604;2023-06-19T01:52:32;8.13;;;7.43;;
41343;SDS011;27089;50.022;7.604;2023-06-19T01:55:01;8.37;;;7.53;;
41343;SDS011;27089;50.022;7.604;2023-06-19T01:57:28;8.40;;;7.23;;
41343;SDS011;27089;50.022;7.604;2023-06-19T01:59:55;7.80;;;7.00;;
41343;SDS011;27089;50.022;7.604;2023-06-19T02:02:22;7.55;;;6.85;;
41343;SDS011;27089;50.022;7.604;2023-06-19T02:04:49;8.07;;;7.22;;
41343;SDS011;27089;50.022;7.604;2023-06-19T02:07:16;7.97;;;6.70;;
41343;SDS011;27089;50.022;7.604;2023-06-19T02:09:43;7.60;;;6.73;;
41343;SDS011;27089;50.022;7.604;2023-06-19T02:12:11;6.75;;;6.10;;
41343;SDS011;27089;50.022;7.604;2023-06-19T02:14:38;5.93;;;5.32;;
41343;SDS011;27089;50.022;7.604;2023-06-19T02:17:06;7.55;;;6.03;;
41343;SDS011;27089;50.022;7.604;2023-06-19T02:19:32;6.07;;;5.47;;
41343;SDS011;27089;50.022;7.604;2023-06-19T02:21:59;6.05;;;5.45;;
41343;SDS011;27089;50.022;7.604;2023-06-19T02:24:26;6.13;;;5.53;;
41343;SDS011;27089;50.022;7.604;2023-06-19T02:26:53;6.43;;;5.40;;
41343;SDS011;27089;50.022;7.604;2023-06-19T02:29:22;6.20;;;5.60;;
41343;SDS011;27089;50.022;7.604;2023-06-19T02:31:49;7.07;;;5.33;;
41343;SDS011;27089;50.022;7.604;2023-06-19T02:34:16;6.25;;;5.65;;
41343;SDS011;27089;50.022;7.604;2023-06-19T02:36:43;6.90;;;6.03;;
41343;SDS011;27089;50.022;7.604;2023-06-19T02:39:12;6.25;;;5.55;;
41343;SDS011;27089;50.022;7.604;2023-06-19T02:41:39;5.88;;;5.38;;
41343;SDS011;27089;50.022;7.604;2023-06-19T02:44:08;5.47;;;4.97;;
41343;SDS011;27089;50.022;7.604;2023-06-19T02:46:36;5.70;;;5.05;;
41343;SDS011;27089;50.022;7.604;2023-06-19T02:49:03;5.60;;;5.05;;
41343;SDS011;27089;50.022;7.604;2023-06-19T02:51:30;5.40;;;4.90;;
41343;SDS011;27089;50.022;7.604;2023-06-19T02:53:57;5.03;;;4.55;;
41343;SDS011;27089;50.022;7.604;2023-06-19T02:56:26;5.25;;;4.50;;
41343;SDS011;27089;50.022;7.604;2023-06-19T02:58:53;5.30;;;4.80;;
41343;SDS011;27089;50.022;7.604;2023-06-19T03:01:20;5.50;;;5.03;;
41343;SDS011;27089;50.022;7.604;2023-06-19T03:03:49;5.23;;;4.83;;
41343;SDS011;27089;50.022;7.604;2023-06-19T03:06:17;6.50;;;4.70;;
41343;SDS011;27089;50.022;7.604;2023-06-19T03:08:44;4.60;;;4.20;;
41343;SDS011;27089;50.022;7.604;2023-06-19T03:11:12;5.07;;;4.57;;
41343;SDS011;27089;50.022;7.604;2023-06-19T03:13:43;5.35;;;4.85;;
41343;SDS011;27089;50.022;7.604;2023-06-19T03:16:11;4.57;;;4.17;;
41343;SDS011;27089;50.022;7.604;2023-06-19T03:18:39;5.70;;;3.95;;
41343;SDS011;27089;50.022;7.604;2023-06-19T03:21:08;5.30;;;4.80;;
41343;SDS011;27089;50.022;7.604;2023-06-19T03:23:34;5.77;;;4.53;;
41343;SDS011;27089;50.022;7.604;2023-06-19T03:26:02;5.17;;;4.67;;
41343;SDS011;27089;50.022;7.604;2023-06-19T03:28:29;5.37;;;4.30;;
41343;SDS011;27089;50.022;7.604;2023-06-19T03:30:56;5.10;;;4.60;;
41343;SDS011;27089;50.022;7.604;2023-06-19T03:33:23;5.63;;;4.37;;
41343;SDS011;27089;50.022;7.604;2023-06-19T03:35:50;4.70;;;4.13;;
41343;SDS011;27089;50.022;7.604;2023-06-19T03:38:18;5.73;;;4.47;;
41343;SDS011;27089;50.022;7.604;2023-06-19T03:40:45;5.03;;;4.60;;
41343;SDS011;27089;50.022;7.604;2023-06-19T03:43:12;5.27;;;4.57;;
41343;SDS011;27089;50.022;7.604;2023-06-19T03:45:39;4.55;;;4.15;;
41343;SDS011;27089;50.022;7.604;2023-06-19T03:48:06;5.00;;;4.37;;
41343;SDS011;27089;50.022;7.604;2023-06-19T03:50:33;4.77;;;4.20;;
41343;SDS011;27089;50.022;7.604;2023-06-19T03:53:00;4.53;;;3.87;;
41343;SDS011;27089;50.022;7.604;2023-06-19T03:55:28;4.30;;;3.90;;
41343;SDS011;27089;50.022;7.604;2023-06-19T03:57:55;4.80;;;3.67;;
41343;SDS011;27089;50.022;7.604;2023-06-19T04:00:22;4.47;;;3.95;;
41343;SDS011;27089;50.022;7.604;2023-06-19T04:02:49;3.75;;;3.35;;
41343;SDS011;27089;50.022;7.604;2023-06-19T04:05:16;6.13;;;4.00;;
41343;SDS011;27089;50.022;7.604;2023-06-19T04:07:44;4.20;;;3.80;;
41343;SDS011;27089;50.022;7.604;2023-06-19T04:10:11;4.38;;;3.97;;
41343;SDS011;27089;50.022;7.604;2023-06-19T04:12:40;4.65;;;3.60;;
41343;SDS011;27089;50.022;7.604;2023-06-19T04:15:07;3.85;;;3.45;;
41343;SDS011;27089;50.022;7.604;2023-06-19T04:17:34;6.00;;;3.63;;
41343;SDS011;27089;50.022;7.604;2023-06-19T04:20:02;4.35;;;3.60;;
41343;SDS011;27089;50.022;7.604;2023-06-19T04:22:32;3.90;;;3.50;;
41343;SDS011;27089;50.022;7.604;2023-06-19T04:24:59;3.83;;;3.40;;
41343;SDS011;27089;50.022;7.604;2023-06-19T04:27:26;5.35;;;3.10;;
41343;SDS011;27089;50.022;7.604;2023-06-19T04:29:54;5.20;;;3.35;;
41343;SDS011;27089;50.022;7.604;2023-06-19T04:32:21;3.78;;;3.20;;
41343;SDS011;27089;50.022;7.604;2023-06-19T04:34:48;5.68;;;4.43;;
41343;SDS011;27089;50.022;7.604;2023-06-19T04:37:15;3.70;;;3.10;;
41343;SDS011;27089;50.022;7.604;2023-06-19T04:39:44;4.05;;;3.30;;
41343;SDS011;27089;50.022;7.604;2023-06-19T04:42:12;3.67;;;3.30;;
41343;SDS011;27089;50.022;7.604;2023-06-19T04:44:44;5.63;;;3.40;;
41343;SDS011;27089;50.022;7.604;2023-06-19T04:47:12;3.50;;;3.20;;
41343;SDS011;27089;50.022;7.604;2023-06-19T04:49:40;5.68;;;3.33;;
41343;SDS011;27089;50.022;7.604;2023-06-19T04:52:07;3.72;;;3.38;;
41343;SDS011;27089;50.022;7.604;2023-06-19T04:54:34;3.53;;;2.97;;
41343;SDS011;27089;50.022;7.604;2023-06-19T04:57:01;4.13;;;2.72;;
41343;SDS011;27089;50.022;7.604;2023-06-19T04:59:29;5.57;;;3.47;;
41343;SDS011;27089;50.022;7.604;2023-06-19T05:01:56;4.07;;;3.17;;
41343;SDS011;27089;50.022;7.604;2023-06-19T05:04:25;3.00;;;2.70;;
41343;SDS011;27089;50.022;7.604;2023-06-19T05:06:52;4.78;;;3.25;;
41343;SDS011;27089;50.022;7.604;2023-06-19T05:09:19;3.70;;;2.88;;
41343;SDS011;27089;50.022;7.604;2023-06-19T05:11:46;3.67;;;3.10;;
41343;SDS011;27089;50.022;7.604;2023-06-19T05:14:14;4.70;;;3.10;;
41343;SDS011;27089;50.022;7.604;2023-06-19T05:16:41;3.67;;;2.92;;
41343;SDS011;27089;50.022;7.604;2023-06-19T05:19:08;4.13;;;3.10;;
41343;SDS011;27089;50.022;7.604;2023-06-19T05:21:36;5.75;;;2.80;;
41343;SDS011;27089;50.022;7.604;2023-06-19T05:24:03;3.78;;;2.88;;
41343;SDS011;27089;50.022;7.604;2023-06-19T05:26:31;4.75;;;3.00;;
41343;SDS011;27089;50.022;7.604;2023-06-19T05:28:58;3.47;;;3.05;;
41343;SDS011;27089;50.022;7.604;2023-06-19T05:31:25;3.22;;;2.78;;
41343;SDS011;27089;50.022;7.604;2023-06-19T05:33:52;4.10;;;3.10;;
41343;SDS011;27089;50.022;7.604;2023-06-19T05:36:19;3.83;;;2.88;;
41343;SDS011;27089;50.022;7.604;2023-06-19T05:38:48;3.50;;;3.00;;
41343;SDS011;27089;50.022;7.604;2023-06-19T05:41:15;4.35;;;2.97;;
41343;SDS011;27089;50.022;7.604;2023-06-19T05:43:42;4.07;;;2.60;;
41343;SDS011;27089;50.022;7.604;2023-06-19T05:46:09;3.10;;;2.80;;
41343;SDS011;27089;50.022;7.604;2023-06-19T05:48:37;3.10;;;2.80;;
41343;SDS011;27089;50.022;7.604;2023-06-19T05:51:03;3.35;;;3.03;;
41343;SDS011;27089;50.022;7.604;2023-06-19T05:53:30;4.13;;;3.10;;
41343;SDS011;27089;50.022;7.604;2023-06-19T05:55:59;3.20;;;2.90;;
41343;SDS011;27089;50.022;7.604;2023-06-19T05:58:26;2.97;;;2.78;;
41343;SDS011;27089;50.022;7.604;2023-06-19T06:00:53;3.67;;;3.17;;
41343;SDS011;27089;50.022;7.604;2023-06-19T06:03:23;3.42;;;3.08;;
41343;SDS011;27089;50.022;7.604;2023-06-19T06:05:50;3.60;;;3.30;;
41343;SDS011;27089;50.022;7.604;2023-06-19T06:08:17;6.25;;;2.80;;
41343;SDS011;27089;50.022;7.604;2023-06-19T06:10:44;3.45;;;3.15;;
41343;SDS011;27089;50.022;7.604;2023-06-19T06:13:13;4.63;;;2.80;;
41343;SDS011;27089;50.022;7.604;2023-06-19T06:15:40;4.55;;;3.08;;
41343;SDS011;27089;50.022;7.604;2023-06-19T06:18:07;5.32;;;3.17;;
41343;SDS011;27089;50.022;7.604;2023-06-19T06:20:34;3.72;;;3.13;;
41343;SDS011;27089;50.022;7.604;2023-06-19T06:23:01;3.60;;;3.30;;
41343;SDS011;27089;50.022;7.604;2023-06-19T06:25:28;3.35;;;3.03;;
41343;SDS011;27089;50.022;7.604;2023-06-19T06:27:55;3.88;;;2.80;;
41343;SDS011;27089;50.022;7.604;2023-06-19T06:30:23;3.63;;;3.10;;
41343;SDS011;27089;50.022;7.604;2023-06-19T06:32:52;4.13;;;3.33;;
41343;SDS011;27089;50.022;7.604;2023-06-19T06:35:19;3.78;;;3.47;;
41343;SDS011;27089;50.022;7.604;2023-06-19T06:37:46;4.22;;;3.72;;
41343;SDS011;27089;50.022;7.604;2023-06-19T06:40:15;3.80;;;3.50;;
41343;SDS011;27089;50.022;7.604;2023-06-19T06:42:42;4.10;;;3.80;;
41343;SDS011;27089;50.022;7.604;2023-06-19T06:45:09;4.28;;;3.65;;
41343;SDS011;27089;50.022;7.604;2023-06-19T06:47:38;5.65;;;4.18;;
41343;SDS011;27089;50.022;7.604;2023-06-19T06:50:06;4.47;;;4.00;;
41343;SDS011;27089;50.022;7.604;2023-06-19T06:52:34;4.00;;;3.55;;
41343;SDS011;27089;50.022;7.604;2023-06-19T06:55:01;4.10;;;3.67;;
41343;SDS011;27089;50.022;7.604;2023-06-19T06:57:29;5.13;;;4.20;;
41343;SDS011;27089;50.022;7.604;2023-06-19T06:59:56;6.57;;;4.45;;
41343;SDS011;27089;50.022;7.604;2023-06-19T07:02:23;5.03;;;3.92;;
41343;SDS011;27089;50.022;7.604;2023-06-19T07:04:51;5.50;;;4.03;;
41343;SDS011;27089;50.022;7.604;2023-06-19T07:07:18;6.15;;;4.45;;
41343;SDS011;27089;50.022;7.604;2023-06-19T07:09:46;5.65;;;3.97;;
41343;SDS011;27089;50.022;7.604;2023-06-19T07:12:13;5.05;;;4.25;;
41343;SDS011;27089;50.022;7.604;2023-06-19T07:14:40;4.22;;;3.78;;
41343;SDS011;27089;50.022;7.604;2023-06-19T07:17:07;5.38;;;3.88;;
41343;SDS011;27089;50.022;7.604;2023-06-19T07:19:34;5.65;;;4.10;;
41343;SDS011;27089;50.022;7.604;2023-06-19T07:22:02;4.85;;;4.25;;
41343;SDS011;27089;50.022;7.604;2023-06-19T07:24:30;5.20;;;4.00;;
41343;SDS011;27089;50.022;7.604;2023-06-19T07:26:57;4.57;;;4.18;;
41343;SDS011;27089;50.022;7.604;2023-06-19T07:29:24;5.03;;;3.90;;
41343;SDS011;27089;50.022;7.604;2023-06-19T07:31:52;4.38;;;3.80;;
41343;SDS011;27089;50.022;7.604;2023-06-19T07:34:19;4.60;;;3.92;;
41343;SDS011;27089;50.022;7.604;2023-06-19T07:36:46;6.25;;;3.95;;
41343;SDS011;27089;50.022;7.604;2023-06-19T07:39:15;4.35;;;3.95;;
41343;SDS011;27089;50.022;7.604;2023-06-19T07:41:42;3.85;;;3.47;;
41343;SDS011;27089;50.022;7.604;2023-06-19T07:44:10;5.32;;;3.65;;
41343;SDS011;27089;50.022;7.604;2023-06-19T07:46:37;3.50;;;3.20;;
41343;SDS011;27089;50.022;7.604;2023-06-19T07:49:04;5.32;;;3.60;;
41343;SDS011;27089;50.022;7.604;2023-06-19T07:51:31;3.70;;;3.30;;
41343;SDS011;27089;50.022;7.604;2023-06-19T07:53:58;4.05;;;3.53;;
41343;SDS011;27089;50.022;7.604;2023-06-19T07:56:26;3.97;;;3.22;;
41343;SDS011;27089;50.022;7.604;2023-06-19T07:58:53;5.22;;;3.10;;
41343;SDS011;27089;50.022;7.604;2023-06-19T08:01:20;3.85;;;3.20;;
41343;SDS011;27089;50.022;7.604;2023-06-19T08:03:47;4.45;;;3.40;;
41343;SDS011;27089;50.022;7.604;2023-06-19T08:06:14;3.80;;;3.50;;
41343;SDS011;27089;50.022;7.604;2023-06-19T08:08:41;3.58;;;3.28;;
41343;SDS011;27089;50.022;7.604;2023-06-19T08:11:08;5.80;;;3.42;;
41343;SDS011;27089;50.022;7.604;2023-06-19T08:13:36;4.20;;;3.22;;
41343;SDS011;27089;50.022;7.604;2023-06-19T08:16:04;3.30;;;3.10;;
41343;SDS011;27089;50.022;7.604;2023-06-19T08:18:31;4.22;;;3.28;;
41343;SDS011;27089;50.022;7.604;2023-06-19T08:20:58;3.75;;;3.35;;
41343;SDS011;27089;50.022;7.604;2023-06-19T08:23:25;3.50;;;3.20;;
41343;SDS011;27089;50.022;7.604;2023-06-19T08:25:52;4.07;;;3.67;;
41343;SDS011;27089;50.022;7.604;2023-06-19T08:28:19;4.90;;;3.28;;
41343;SDS011;27089;50.022;7.604;2023-06-19T08:30:48;3.63;;;3.10;;
41343;SDS011;27089;50.022;7.604;2023-06-19T08:33:15;4.30;;;3.45;;
41343;SDS011;27089;50.022;7.604;2023-06-19T08:35:42;5.88;;;3.63;;
41343;SDS011;27089;50.022;7.604;2023-06-19T08:38:09;3.92;;;3.58;;
41343;SDS011;27089;50.022;7.604;2023-06-19T08:40:36;4.30;;;3.50;;
41343;SDS011;27089;50.022;7.604;2023-06-19T08:43:03;3.80;;;3.20;;
41343;SDS011;27089;50.022;7.604;2023-06-19T08:45:30;5.40;;;3.83;;
41343;SDS011;27089;50.022;7.604;2023-06-19T08:47:59;3.92;;;3.53;;
41343;SDS011;27089;50.022;7.604;2023-06-19T08:50:28;4.20;;;3.50;;
41343;SDS011;27089;50.022;7.604;2023-06-19T08:52:55;3.95;;;3.55;;
41343;SDS011;27089;50.022;7.604;2023-06-19T08:55:22;4.25;;;3.85;;
41343;SDS011;27089;50.022;7.604;2023-06-19T08:57:50;4.32;;;3.92;;
41343;SDS011;27089;50.022;7.604;2023-06-19T09:00:22;4.07;;;3.63;;
41343;SDS011;27089;50.022;7.604;2023-06-19T09:02:50;3.90;;;3.60;;
41343;SDS011;27089;50.022;7.604;2023-06-19T09:05:19;4.20;;;3.40;;
41343;SDS011;27089;50.022;7.604;2023-06-19T09:07:53;4.97;;;3.20;;
41343;SDS011;27089;50.022;7.604;2023-06-19T09:10:21;4.22;;;3.80;;
41343;SDS011;27089;50.022;7.604;2023-06-19T09:12:56;4.35;;;3.50;;
41343;SDS011;27089;50.022;7.604;2023-06-19T09:15:26;5.28;;;4.05;;
41343;SDS011;27089;50.022;7.604;2023-06-19T09:18:04;4.65;;;3.70;;
41343;SDS011;27089;50.022;7.604;2023-06-19T09:20:34;4.63;;;3.90;;
41343;SDS011;27089;50.022;7.604;2023-06-19T09:23:03;3.92;;;3.53;;
41343;SDS011;27089;50.022;7.604;2023-06-19T09:25:30;5.50;;;3.60;;
41343;SDS011;27089;50.022;7.604;2023-06-19T09:27:57;3.95;;;3.60;;
41343;SDS011;27089;50.022;7.604;2023-06-19T09:30:24;3.97;;;3.60;;
41343;SDS011;27089;50.022;7.604;2023-06-19T09:32:51;4.28;;;3.38;;
41343;SDS011;27089;50.022;7.604;2023-06-19T09:35:18;4.13;;;3.67;;
41343;SDS011;27089;50.022;7.604;2023-06-19T09:37:47;4.03;;;3.72;;
41343;SDS011;27089;50.022;7.604;2023-06-19T09:40:16;4.15;;;3.75;;
41343;SDS011;27089;50.022;7.604;2023-06-19T09:42:43;4.40;;;4.05;;
41343;SDS011;27089;50.022;7.604;2023-06-19T09:45:12;5.43;;;3.95;;
41343;SDS011;27089;50.022;7.604;2023-06-19T09:47:42;6.53;;;3.97;;
41343;SDS011;27089;50.022;7.604;2023-06-19T09:50:11;5.32;;;3.92;;
41343;SDS011;27089;50.022;7.604;2023-06-19T09:52:40;5.20;;;4.15;;
41343;SDS011;27089;50.022;7.604;2023-06-19T09:55:09;4.68;;;4.28;;
41343;SDS011;27089;50.022;7.604;2023-06-19T09:57:38;4.25;;;3.85;;
41343;SDS011;27089;50.022;7.604;2023-06-19T10:00:07;4.53;;;3.85;;
41343;SDS011;27089;50.022;7.604;2023-06-19T10:02:37;4.38;;;3.97;;
41343;SDS011;27089;50.022;7.604;2023-06-19T10:05:06;4.90;;;4.25;;
41343;SDS011;27089;50.022;7.604;2023-06-19T10:07:37;6.15;;;4.05;;
41343;SDS011;27089;50.022;7.604;2023-06-19T10:10:06;4.60;;;4.20;;
41343;SDS011;27089;50.022;7.604;2023-06-19T10:12:38;7.13;;;4.07;;
41343;SDS011;27089;50.022;7.604;2023-06-19T10:15:10;5.07;;;3.95;;
41343;SDS011;27089;50.022;7.604;2023-06-19T10:17:42;6.57;;;4.32;;
41343;SDS011;27089;50.022;7.604;2023-06-19T10:20:18;4.90;;;4.40;;
41343;SDS011;27089;50.022;7.604;2023-06-19T10:22:50;4.78;;;3.80;;
41343;SDS011;27089;50.022;7.604;2023-06-19T10:25:23;4.68;;;3.63;;
41343;SDS011;27089;50.022;7.604;2023-06-19T10:27:53;4.38;;;3.80;;
41343;SDS011;27089;50.022;7.604;2023-06-19T10:30:20;7.70;;;4.20;;
41343;SDS011;27089;50.022;7.604;2023-06-19T10:32:47;4.93;;;4.15;;
41343;SDS011;27089;50.022;7.604;2023-06-19T10:35:15;4.35;;;3.53;;
41343;SDS011;27089;50.022;7.604;2023-06-19T10:37:46;8.35;;;4.30;;
41343;SDS011;27089;50.022;7.604;2023-06-19T10:40:14;4.03;;;3.55;;
41343;SDS011;27089;50.022;7.604;2023-06-19T10:42:42;4.53;;;3.90;;
41343;SDS011;27089;50.022;7.604;2023-06-19T10:45:10;3.85;;;3.35;;
41343;SDS011;27089;50.022;7.604;2023-06-19T10:47:41;4.65;;;3.30;;
41343;SDS011;27089;50.022;7.604;2023-06-19T10:50:11;4.25;;;3.45;;
41343;SDS011;27089;50.022;7.604;2023-06-19T10:52:41;3.45;;;3.15;;
41343;SDS011;27089;50.022;7.604;2023-06-19T10:55:09;3.50;;;3.20;;
41343;SDS011;27089;50.022;7.604;2023-06-19T10:57:38;4.80;;;3.20;;
41343;SDS011;27089;50.022;7.604;2023-06-19T11:00:08;5.38;;;3.20;;
41343;SDS011;27089;50.022;7.604;2023-06-19T11:02:39;3.47;;;3.17;;
41343;SDS011;27089;50.022;7.604;2023-06-19T11:05:08;3.50;;;3.20;;
41343;SDS011;27089;50.022;7.604;2023-06-19T11:07:36;5.00;;;3.55;;
41343;SDS011;27089;50.022;7.604;2023-06-19T11:10:04;4.90;;;3.30;;
41343;SDS011;27089;50.022;7.604;2023-06-19T11:12:32;3.53;;;3.17;;
41343;SDS011;27089;50.022;7.604;2023-06-19T11:15:02;6.18;;;3.17;;
41343;SDS011;27089;50.022;7.604;2023-06-19T11:17:32;3.65;;;2.80;;
41343;SDS011;27089;50.022;7.604;2023-06-19T11:20:00;3.35;;;3.05;;
41343;SDS011;27089;50.022;7.604;2023-06-19T11:22:36;3.50;;;2.67;;
41343;SDS011;27089;50.022;7.604;2023-06-19T11:25:06;3.70;;;3.30;;
41343;SDS011;27089;50.022;7.604;2023-06-19T11:27:36;3.15;;;2.80;;
41343;SDS011;27089;50.022;7.604;2023-06-19T11:30:05;5.65;;;3.05;;
41343;SDS011;27089;50.022;7.604;2023-06-19T11:32:36;3.63;;;3.05;;
41343;SDS011;27089;50.022;7.604;2023-06-19T11:35:07;3.22;;;2.92;;
41343;SDS011;27089;50.022;7.604;2023-06-19T11:37:36;3.17;;;2.88;;
41343;SDS011;27089;50.022;7.604;2023-06-19T11:40:06;3.42;;;3.13;;
41343;SDS011;27089;50.022;7.604;2023-06-19T11:42:47;3.42;;;3.13;;
41343;SDS011;27089;50.022;7.604;2023-06-19T11:45:15;4.10;;;3.08;;
41343;SDS011;27089;50.022;7.604;2023-06-19T11:47:46;3.45;;;3.15;;
41343;SDS011;27089;50.022;7.604;2023-06-19T11:50:14;3.45;;;2.95;;
41343;SDS011;27089;50.022;7.604;2023-06-19T11:52:42;2.90;;;2.70;;
41343;SDS011;27089;50.022;7.604;2023-06-19T11:55:10;3.92;;;2.78;;
41343;SDS011;27089;50.022;7.604;2023-06-19T11:57:38;3.83;;;3.10;;
41343;SDS011;27089;50.022;7.604;2023-06-19T12:00:12;3.88;;;2.80;;
41343;SDS011;27089;50.022;7.604;2023-06-19T12:02:40;3.05;;;2.75;;
41343;SDS011;27089;50.022;7.604;2023-06-19T12:05:09;3.38;;;3.00;;
41343;SDS011;27089;50.022;7.604;2023-06-19T12:07:37;3.22;;;2.92;;
41343;SDS011;27089;50.022;7.604;2023-06-19T12:10:04;4.38;;;2.72;;
41343;SDS011;27089;50.022;7.604;2023-06-19T12:12:35;6.00;;;3.30;;
41343;SDS011;27089;50.022;7.604;2023-06-19T12:15:03;3.95;;;2.92;;
41343;SDS011;27089;50.022;7.604;2023-06-19T12:17:31;2.90;;;2.70;;
41343;SDS011;27089;50.022;7.604;2023-06-19T12:19:59;3.35;;;2.80;;
41343;SDS011;27089;50.022;7.604;2023-06-19T12:22:28;2.90;;;2.60;;
41343;SDS011;27089;50.022;7.604;2023-06-19T12:24:55;3.20;;;2.90;;
41343;SDS011;27089;50.022;7.604;2023-06-19T12:27:22;2.22;;;2.03;;
41343;SDS011;27089;50.022;7.604;2023-06-19T12:29:49;2.85;;;2.47;;
41343;SDS011;27089;50.022;7.604;2023-06-19T12:32:16;4.68;;;2.35;;
41343;SDS011;27089;50.022;7.604;2023-06-19T12:34:42;3.20;;;2.90;;
41343;SDS011;27089;50.022;7.604;2023-06-19T12:37:11;3.30;;;3.00;;
41343;SDS011;27089;50.022;7.604;2023-06-19T12:39:41;3.10;;;2.80;;
41343;SDS011;27089;50.022;7.604;2023-06-19T12:42:08;4.65;;;3.03;;
41343;SDS011;27089;50.022;7.604;2023-06-19T12:44:37;4.82;;;3.17;;
41343;SDS011;27089;50.022;7.604;2023-06-19T12:47:04;5.80;;;3.20;;
41343;SDS011;27089;50.022;7.604;2023-06-19T12:49:31;4.90;;;3.30;;
41343;SDS011;27089;50.022;7.604;2023-06-19T12:51:58;2.90;;;2.70;;
41343;SDS011;27089;50.022;7.604;2023-06-19T12:54:26;2.78;;;2.58;;
41343;SDS011;27089;50.022;7.604;2023-06-19T12:56:54;2.72;;;2.53;;
41343;SDS011;27089;50.022;7.604;2023-06-19T12:59:21;3.42;;;2.80;;
41343;SDS011;27089;50.022;7.604;2023-06-19T13:01:48;4.85;;;2.78;;
41343;SDS011;27089;50.022;7.604;2023-06-19T13:04:15;2.90;;;2.70;;
41343;SDS011;27089;50.022;7.604;2023-06-19T13:06:42;3.00;;;2.70;;
41343;SDS011;27089;50.022;7.604;2023-06-19T13:09:09;3.30;;;2.85;;
41343;SDS011;27089;50.022;7.604;2023-06-19T13:11:36;4.25;;;2.90;;
41343;SDS011;27089;50.022;7.604;2023-06-19T13:14:05;3.63;;;2.92;;
41343;SDS011;27089;50.022;7.604;2023-06-19T13:16:32;3.33;;;3.03;;
41343;SDS011;27089;50.022;7.604;2023-06-19T13:18:59;3.38;;;2.83;;
41343;SDS011;27089;50.022;7.604;2023-06-19T13:21:26;6.18;;;3.33;;
41343;SDS011;27089;50.022;7.604;2023-06-19T13:23:52;4.93;;;3.15;;
41343;SDS011;27089;50.022;7.604;2023-06-19T13:26:19;3.40;;;3.10;;
41343;SDS011;27089;50.022;7.604;2023-06-19T13:28:46;3.50;;;3.20;;
41343;SDS011;27089;50.022;7.604;2023-06-19T13:31:15;3.35;;;2.90;;
41343;SDS011;27089;50.022;7.604;2023-06-19T13:33:42;2.88;;;2.60;;
41343;SDS011;27089;50.022;7.604;2023-06-19T13:36:09;3.92;;;2.75;;
41343;SDS011;27089;50.022;7.604;2023-06-19T13:38:36;3.28;;;2.97;;
41343;SDS011;27089;50.022;7.604;2023-06-19T13:41:03;4.07;;;2.75;;
41343;SDS011;27089;50.022;7.604;2023-06-19T13:43:31;4.50;;;2.90;;
41343;SDS011;27089;50.022;7.604;2023-06-19T13:45:58;3.72;;;2.88;;
41343;SDS011;27089;50.022;7.604;2023-06-19T13:48:27;4.38;;;2.80;;
41343;SDS011;27089;50.022;7.604;2023-06-19T13:50:54;3.75;;;3.17;;
41343;SDS011;27089;50.022;7.604;2023-06-19T13:53:22;3.97;;;3.05;;
41343;SDS011;27089;50.022;7.604;2023-06-19T13:55:49;4.78;;;2.83;;
41343;SDS011;27089;50.022;7.604;2023-06-19T13:58:16;3.20;;;2.70;;
41343;SDS011;27089;50.022;7.604;2023-06-19T14:00:43;2.80;;;2.60;;
41343;SDS011;27089;50.022;7.604;2023-06-19T14:03:10;4.03;;;3.17;;
41343;SDS011;27089;50.022;7.604;2023-06-19T14:05:38;4.28;;;2.75;;
41343;SDS011;27089;50.022;7.604;2023-06-19T14:08:05;4.32;;;2.70;;
41343;SDS011;27089;50.022;7.604;2023-06-19T14:10:33;4.20;;;2.92;;
41343;SDS011;27089;50.022;7.604;2023-06-19T14:13:00;4.15;;;2.85;;
41343;SDS011;27089;50.022;7.604;2023-06-19T14:15:27;3.35;;;3.05;;
41343;SDS011;27089;50.022;7.604;2023-06-19T14:17:54;4.03;;;3.00;;
41343;SDS011;27089;50.022;7.604;2023-06-19T14:20:21;4.32;;;3.35;;
41343;SDS011;27089;50.022;7.604;2023-06-19T14:22:49;5.30;;;2.90;;
41343;SDS011;27089;50.022;7.604;2023-06-19T14:25:16;4.47;;;2.72;;
41343;SDS011;27089;50.022;7.604;2023-06-19T14:27:43;3.55;;;3.10;;
41343;SDS011;27089;50.022;7.604;2023-06-19T14:30:10;4.00;;;3.20;;
41343;SDS011;27089;50.022;7.604;2023-06-19T14:32:38;3.22;;;2.95;;
41343;SDS011;27089;50.022;7.604;2023-06-19T14:35:05;3.30;;;3.00;;
41343;SDS011;27089;50.022;7.604;2023-06-19T14:37:33;4.53;;;3.10;;
41343;SDS011;27089;50.022;7.604;2023-06-19T14:40:01;4.80;;;3.40;;
41343;SDS011;27089;50.022;7.604;2023-06-19T14:42:29;3.95;;;3.08;;
41343;SDS011;27089;50.022;7.604;2023-06-19T14:44:56;5.90;;;2.97;;
41343;SDS011;27089;50.022;7.604;2023-06-19T14:47:23;3.47;;;3.10;;
41343;SDS011;27089;50.022;7.604;2023-06-19T14:49:50;3.67;;;3.25;;
41343;SDS011;27089;50.022;7.604;2023-06-19T14:52:18;3.25;;;3.00;;